createdAt,value
2022-08-28T00:01:33.678Z,97918.97
2022-08-28T00:06:36.255Z,97918.25
2022-08-28T00:11:39.548Z,97916.38
2022-08-28T00:16:42.539Z,97920.66
2022-08-28T00:21:46.183Z,97929.59
2022-08-28T00:27:07.317Z,97919.97
2022-08-28T00:32:09.873Z,97928.72
2022-08-28T00:37:12.568Z,97928.84
2022-08-28T00:42:15.339Z,97933.38
2022-08-28T00:47:17.975Z,97926.06
2022-08-28T00:52:24.360Z,97925.66
2022-08-28T00:57:28.764Z,97914.97
2022-08-28T01:02:32.383Z,97913.38
2022-08-28T01:07:35.639Z,97912.47
2022-08-28T01:12:38.930Z,97915.47
2022-08-28T01:17:46.196Z,97923.00
2022-08-28T01:23:15.829Z,97924.97
2022-08-28T01:28:18.622Z,97916.22
2022-08-28T01:33:28.100Z,97923.06
2022-08-28T01:38:30.837Z,97906.00
2022-08-28T01:43:33.767Z,97913.00
2022-08-28T01:48:40.425Z,97910.16
2022-08-28T01:53:46.444Z,97917.16
2022-08-28T01:58:49.262Z,97920.97
2022-08-28T02:03:53.187Z,97920.69
2022-08-28T02:08:55.844Z,97919.63
2022-08-28T02:13:59.247Z,97920.53
2022-08-28T02:19:02.907Z,97926.53
2022-08-28T02:24:05.630Z,97925.22
2022-08-28T02:29:08.120Z,97923.16
2022-08-28T02:34:11.538Z,97920.34
2022-08-28T02:39:14.084Z,97924.41
2022-08-28T02:44:17.400Z,97924.97
2022-08-28T02:49:19.936Z,97920.75
2022-08-28T02:54:22.531Z,97921.97
2022-08-28T02:59:25.166Z,97926.69
2022-08-28T03:04:28.703Z,97914.78
2022-08-28T03:09:31.416Z,97920.53
2022-08-28T03:14:34.347Z,97919.94
2022-08-28T03:19:36.817Z,97915.59
2022-08-28T03:24:39.435Z,97917.25
2022-08-28T03:29:42.192Z,97916.41
2022-08-28T03:34:45.092Z,97917.59
2022-08-28T03:39:47.650Z,97922.19
2022-08-28T03:44:50.166Z,97924.63
2022-08-28T03:49:59.171Z,97926.72
2022-08-28T03:55:01.858Z,97925.91
2022-08-28T04:00:08.896Z,97928.84
2022-08-28T04:05:14.845Z,97923.56
2022-08-28T04:10:17.382Z,97934.72
2022-08-28T04:15:21.371Z,97936.94
2022-08-28T04:20:24.201Z,97934.59
2022-08-28T04:25:27.339Z,97927.19
2022-08-28T04:30:29.879Z,97940.97
2022-08-28T04:35:32.341Z,97934.53
2022-08-28T04:40:38.220Z,97933.63
2022-08-28T04:45:45.544Z,97928.63
2022-08-28T04:50:49.334Z,97941.50
2022-08-28T04:55:54.986Z,97946.25
2022-08-28T05:00:58.064Z,97936.84
2022-08-28T05:06:00.547Z,97943.94
2022-08-28T05:11:32.913Z,97950.69
2022-08-28T05:16:46.715Z,97947.19
2022-08-28T05:21:49.867Z,97948.88
2022-08-28T05:26:52.395Z,97952.59
2022-08-28T05:31:55.007Z,97967.22
2022-08-28T05:36:58.260Z,97960.25
2022-08-28T05:42:00.934Z,97958.66
2022-08-28T05:47:03.493Z,97961.97
2022-08-28T05:52:06.177Z,97965.66
2022-08-28T05:57:08.639Z,97967.09
2022-08-28T06:02:11.346Z,97964.84
2022-08-28T06:07:15.522Z,97972.13
2022-08-28T06:12:18.285Z,97981.47
2022-08-28T06:17:23.576Z,97983.72
2022-08-28T06:22:26.743Z,97976.88
2022-08-28T06:27:30.080Z,97981.97
2022-08-28T06:32:32.627Z,97990.31
2022-08-28T06:37:35.155Z,97992.31
2022-08-28T06:42:37.669Z,97994.53
2022-08-28T06:47:40.169Z,98002.66
2022-08-28T06:52:42.637Z,97998.13
2022-08-28T06:57:45.105Z,98003.38
2022-08-28T07:02:47.603Z,98003.78
2022-08-28T07:07:50.164Z,98016.16
2022-08-28T07:12:52.649Z,98016.97
2022-08-28T07:17:55.138Z,98025.53
2022-08-28T07:22:59.607Z,98015.34
2022-08-28T07:28:02.366Z,98019.88
2022-08-28T07:33:04.883Z,98021.44
2022-08-28T07:38:07.358Z,98030.47
2022-08-28T07:43:28.544Z,98036.31
2022-08-28T07:48:30.996Z,98041.88
2022-08-28T07:53:36.533Z,98046.41
2022-08-28T07:58:39.557Z,98045.94
2022-08-28T08:03:42.289Z,98046.91
2022-08-28T08:08:46.383Z,98049.81
2022-08-28T08:13:50.965Z,98055.06
2022-08-28T08:18:54.151Z,98061.59
2022-08-28T08:23:56.767Z,98069.00
2022-08-28T08:29:00.248Z,98072.22
2022-08-28T08:34:04.670Z,98074.81
2022-08-28T08:39:09.763Z,98080.78
2022-08-28T08:44:21.382Z,98080.56
2022-08-28T08:49:31.543Z,98087.69
2022-08-28T08:54:34.283Z,98095.81
2022-08-28T08:59:39.156Z,98096.22
2022-08-28T09:05:06.872Z,98099.31
2022-08-28T09:10:13.759Z,98098.88
2022-08-28T09:15:28.584Z,98102.06
2022-08-28T09:20:33.098Z,98101.59
2022-08-28T09:26:03.918Z,98098.91
2022-08-28T09:31:09.892Z,98099.75
2022-08-28T09:36:27.761Z,98101.69
2022-08-28T09:41:49.577Z,98105.22
2022-08-28T09:46:52.515Z,98103.72
2022-08-28T09:51:57.893Z,98102.44
2022-08-28T09:57:03.666Z,98101.16
2022-08-28T10:02:24.898Z,98100.53
2022-08-28T10:07:31.169Z,98109.50
2022-08-28T10:12:40.184Z,98104.13
2022-08-28T10:17:58.366Z,98108.94
2022-08-28T10:23:19.420Z,98094.16
2022-08-28T10:28:49.133Z,98099.00
2022-08-28T10:34:20.515Z,98102.69
2022-08-28T10:39:26.025Z,98102.38
2022-08-28T10:45:04.632Z,98093.63
2022-08-28T10:50:40.162Z,98093.66
2022-08-28T10:55:55.209Z,98088.16
2022-08-28T11:01:04.663Z,98093.03
2022-08-28T11:06:15.307Z,98091.81
2022-08-28T11:11:46.837Z,98096.47
2022-08-28T11:16:50.270Z,98097.97
2022-08-28T11:22:02.284Z,98091.22
2022-08-28T11:27:23.282Z,98097.75
2022-08-28T11:32:28.845Z,98107.34
2022-08-28T11:37:43.978Z,98089.25
2022-08-28T11:42:50.199Z,98084.59
2022-08-28T11:47:56.718Z,98090.47
2022-08-28T11:53:27.363Z,98086.88
2022-08-28T11:58:54.579Z,98082.69
2022-08-28T12:04:08.472Z,98094.09
2022-08-28T12:09:32.207Z,98086.19
2022-08-28T12:14:41.163Z,98086.66
2022-08-28T12:20:04.206Z,98080.59
2022-08-28T12:25:31.917Z,98081.03
2022-08-28T12:30:42.265Z,98077.09
2022-08-28T12:35:45.055Z,98079.97
2022-08-28T12:40:50.887Z,98082.84
2022-08-28T12:45:56.812Z,98075.09
2022-08-28T12:51:08.302Z,98069.81
2022-08-28T12:56:17.139Z,98075.06
2022-08-28T13:01:32.764Z,98076.03
2022-08-28T13:06:38.649Z,98069.09
2022-08-28T13:11:46.941Z,98062.44
2022-08-28T13:16:49.521Z,98070.47
2022-08-28T13:22:00.561Z,98065.38
2022-08-28T13:27:24.407Z,98070.88
2022-08-28T13:32:28.261Z,98057.50
2022-08-28T13:37:53.319Z,98053.25
2022-08-28T13:43:07.128Z,98044.34
2022-08-28T13:48:11.197Z,98042.03
2022-08-28T13:53:14.757Z,98040.19
2022-08-28T13:58:17.905Z,98041.13
2022-08-28T14:03:36.750Z,98046.84
2022-08-28T14:08:40.828Z,98036.38
2022-08-28T14:13:47.115Z,98037.66
2022-08-28T14:19:00.257Z,98025.47
2022-08-28T14:24:03.585Z,98022.91
2022-08-28T14:29:08.889Z,98027.47
2022-08-28T14:34:13.818Z,98013.63
2022-08-28T14:39:17.000Z,98011.72
2022-08-28T14:44:21.738Z,98003.09
2022-08-28T14:49:25.950Z,98008.09
2022-08-28T14:54:29.102Z,98012.06
2022-08-28T14:59:33.116Z,98007.56
2022-08-28T15:04:38.122Z,98008.59
2022-08-28T15:09:42.105Z,98000.88
2022-08-28T15:14:54.943Z,98000.66
2022-08-28T15:20:04.915Z,98008.03
2022-08-28T15:25:07.676Z,97997.94
2022-08-28T15:30:11.627Z,97997.31
2022-08-28T15:35:14.465Z,97993.81
2022-08-28T15:40:36.238Z,98005.25
2022-08-28T15:45:40.742Z,97991.72
2022-08-28T15:50:43.857Z,97991.91
2022-08-28T15:55:46.770Z,97985.09
2022-08-28T16:00:50.132Z,97991.75
2022-08-28T16:05:52.847Z,97995.41
2022-08-28T16:10:56.296Z,97996.09
2022-08-28T16:15:59.097Z,97995.53
2022-08-28T16:21:04.934Z,98004.38
2022-08-28T16:26:09.309Z,97998.69
2022-08-28T16:31:19.214Z,98000.28
2022-08-28T16:36:25.513Z,98001.16
2022-08-28T16:41:29.094Z,97994.28
2022-08-28T16:46:34.583Z,97998.53
2022-08-28T16:51:37.922Z,97995.72
2022-08-28T16:56:40.514Z,97991.63
2022-08-28T17:01:43.118Z,97993.94
2022-08-28T17:06:46.000Z,98010.09
2022-08-28T17:11:52.079Z,98008.31
2022-08-28T17:16:54.934Z,97999.72
2022-08-28T17:22:16.449Z,98008.63
2022-08-28T17:27:22.466Z,98007.88
2022-08-28T17:32:25.967Z,98008.09
2022-08-28T17:37:29.177Z,98013.88
2022-08-28T17:42:31.728Z,98019.03
2022-08-28T17:47:34.440Z,98024.59
2022-08-28T17:52:37.171Z,98035.75
2022-08-28T17:57:40.077Z,98032.97
2022-08-28T18:02:43.370Z,98028.53
2022-08-28T18:07:46.071Z,98040.00
2022-08-28T18:12:48.925Z,98044.81
2022-08-28T18:17:51.854Z,98044.59
2022-08-28T18:22:54.409Z,98049.63
2022-08-28T18:27:57.221Z,98050.66
2022-08-28T18:33:00.533Z,98053.75
2022-08-28T18:38:03.528Z,98070.56
2022-08-28T18:43:06.085Z,98077.50
2022-08-28T18:48:08.559Z,98088.88
2022-08-28T18:53:11.034Z,98097.41
2022-08-28T18:58:15.199Z,98100.03
2022-08-28T19:03:18.290Z,98106.22
2022-08-28T19:08:20.803Z,98117.97
2022-08-28T19:13:23.507Z,98118.31
2022-08-28T19:18:26.040Z,98127.69
2022-08-28T19:23:28.923Z,98131.97
2022-08-28T19:28:31.646Z,98133.97
2022-08-28T19:33:34.744Z,98132.47
2022-08-28T19:38:37.250Z,98129.38
2022-08-28T19:43:43.414Z,98134.69
2022-08-28T19:48:50.872Z,98132.56
2022-08-28T19:53:58.366Z,98126.13
2022-08-28T19:59:04.635Z,98135.31
2022-08-28T20:04:08.309Z,98142.88
2022-08-28T20:09:13.010Z,98146.84
2022-08-28T20:14:17.565Z,98154.22
2022-08-28T20:19:21.261Z,98155.03
2022-08-28T20:24:25.177Z,98160.44
2022-08-28T20:29:27.942Z,98162.34
2022-08-28T20:34:30.679Z,98166.44
2022-08-28T20:39:33.484Z,98163.56
2022-08-28T20:44:36.469Z,98164.25
2022-08-28T20:49:39.334Z,98155.63
2022-08-28T20:54:42.469Z,98158.97
2022-08-28T20:59:46.207Z,98153.69
2022-08-28T21:04:49.321Z,98166.38
2022-08-28T21:10:06.093Z,98166.22
2022-08-28T21:15:12.647Z,98178.66
2022-08-28T21:20:16.293Z,98177.63
2022-08-28T21:25:22.060Z,98181.16
2022-08-28T21:30:25.493Z,98183.81
2022-08-28T21:35:33.005Z,98188.09
2022-08-28T21:40:35.800Z,98188.44
2022-08-28T21:45:38.487Z,98187.97
2022-08-28T21:50:43.423Z,98196.84
2022-08-28T21:55:53.873Z,98192.66
2022-08-28T22:00:57.373Z,98187.97
2022-08-28T22:06:00.215Z,98189.00
2022-08-28T22:11:02.812Z,98187.97
2022-08-28T22:16:06.563Z,98186.38
2022-08-28T22:21:32.423Z,98183.06
2022-08-28T22:26:35.802Z,98184.34
2022-08-28T22:31:44.700Z,98185.19
2022-08-28T22:36:48.680Z,98191.28
2022-08-28T22:41:51.369Z,98196.56
2022-08-28T22:46:54.067Z,98188.16
2022-08-28T22:51:56.661Z,98183.84
2022-08-28T22:56:59.352Z,98192.25
2022-08-28T23:02:03.643Z,98191.75
2022-08-28T23:07:06.959Z,98190.88
2022-08-28T23:12:09.516Z,98194.59
2022-08-28T23:17:12.093Z,98194.31
2022-08-28T23:22:15.750Z,98186.50
2022-08-28T23:32:41.352Z,98189.75
2022-08-28T23:37:48.726Z,98187.59
2022-08-28T23:42:55.710Z,98180.53
2022-08-28T23:47:58.498Z,98180.66
2022-08-28T23:53:05.038Z,98185.25
2022-08-28T23:58:07.518Z,98182.69
